Time;durP1;ratioP1;P1;durP2;ratioP2;P2;SDS_P1;SDS_P2;PMS_P1;PMS_P2;Temp;Humidity;BMP_temperature;BMP_pressure;BME280_temperature;BME280_humidity;BME280_pressure;Samples;Min_cycle;Max_cycle;Signal;HPM_P1;HPM_P2
2021/06/11 05:47:43;;;;;;;12.30;8.63;;;;;;;16.05;80.55;97869.13;1871437;76;22617;-63
2021/06/11 05:50:11;;;;;;;9.20;6.70;;;;;;;16.13;80.34;97871.55;1827684;78;20840;-62
2021/06/11 05:52:37;;;;;;;6.75;6.15;;;;;;;16.29;80.03;97873.34;1828061;78;21442;-62
2021/06/11 05:55:06;;;;;;;8.78;6.20;;;;;;;16.46;79.51;97877.02;1827644;78;20966;-63
2021/06/11 05:57:33;;;;;;;9.68;5.45;;;;;;;16.63;79.03;97875.56;1826863;78;21062;-61
2021/06/11 06:00:01;;;;;;;6.28;5.28;;;;;;;16.82;78.55;97883.95;1815912;77;21198;-61
2021/06/11 06:02:28;;;;;;;9.70;5.20;;;;;;;17.00;78.11;97882.67;1820711;77;21251;-64
2021/06/11 06:04:55;;;;;;;6.30;5.25;;;;;;;17.16;77.59;97891.73;1804634;78;21120;-64
2021/06/11 06:07:21;;;;;;;9.95;6.20;;;;;;;17.34;77.30;97894.46;1818692;78;21108;-64
2021/06/11 06:09:49;;;;;;;8.45;5.85;;;;;;;17.49;76.32;97889.76;1826029;78;20942;-61
2021/06/11 06:12:17;;;;;;;6.83;5.17;;;;;;;17.61;75.64;97891.16;1826085;78;20951;-64
2021/06/11 06:14:48;;;;;;;6.40;4.95;;;;;;;17.68;74.91;97887.32;1831991;77;21491;-64
2021/06/11 06:17:18;;;;;;;7.28;4.90;;;;;;;17.77;74.79;97888.55;1836371;78;21473;-65
2021/06/11 06:19:45;;;;;;;7.17;5.12;;;;;;;17.90;74.54;97886.64;1831761;77;21054;-63
2021/06/11 06:22:13;;;;;;;5.72;4.50;;;;;;;18.04;73.95;97883.01;1820009;78;20888;-60
2021/06/11 06:24:40;;;;;;;6.40;4.37;;;;;;;18.20;73.35;97878.46;1825584;78;20948;-64
2021/06/11 06:27:07;;;;;;;8.33;5.53;;;;;;;18.33;73.25;97884.06;1828495;77;20975;-65
2021/06/11 06:29:34;;;;;;;5.83;4.83;;;;;;;18.50;72.82;97883.03;1815299;78;21885;-62
2021/06/11 06:32:04;;;;;;;5.70;4.58;;;;;;;18.63;72.49;97885.36;1795198;80;20911;-61
2021/06/11 06:34:31;;;;;;;6.85;4.78;;;;;;;18.75;71.46;97884.52;1740351;78;20947;-62
2021/06/11 06:36:58;;;;;;;7.30;5.00;;;;;;;18.86;70.73;97888.34;1781622;78;20966;-62
2021/06/11 06:39:26;;;;;;;7.20;4.28;;;;;;;18.96;70.59;97879.70;1776295;80;21655;-64
2021/06/11 06:41:55;;;;;;;7.05;4.55;;;;;;;19.09;70.18;97877.92;1775343;80;21729;-62
2021/06/11 06:44:22;;;;;;;5.92;4.45;;;;;;;19.25;69.92;97879.30;1759449;80;20900;-61
2021/06/11 06:46:49;;;;;;;9.20;4.15;;;;;;;19.41;69.34;97886.11;1739974;82;21059;-62
2021/06/11 06:49:15;;;;;;;5.67;4.83;;;;;;;19.54;68.85;97880.27;1735065;82;21126;-63
2021/06/11 06:51:42;;;;;;;6.97;4.55;;;;;;;19.65;68.56;97878.59;1735088;82;21051;-63
2021/06/11 06:54:10;;;;;;;6.35;4.78;;;;;;;19.72;68.07;97887.48;1737494;81;21899;-63
2021/06/11 06:56:37;;;;;;;7.55;5.05;;;;;;;19.74;67.61;97879.75;1734706;82;21040;-61
2021/06/11 06:59:03;;;;;;;6.12;5.33;;;;;;;19.75;67.67;97882.70;1734267;82;20964;-60
2021/06/11 07:01:31;;;;;;;5.47;4.95;;;;;;;19.74;66.81;97882.47;1735320;82;20987;-64
2021/06/11 07:04:04;;;;;;;8.28;5.05;;;;;;;19.73;66.85;97876.84;1755785;81;20963;-65
2021/06/11 07:06:33;;;;;;;5.47;4.97;;;;;;;19.73;66.76;97880.34;1765430;81;21072;-68
2021/06/11 07:09:00;;;;;;;9.18;5.10;;;;;;;19.83;67.36;97879.03;1764411;81;20976;-63
2021/06/11 07:11:27;;;;;;;12.82;8.98;;;;;;;19.96;66.75;97877.77;1740838;81;20964;-66
2021/06/11 07:13:54;;;;;;;5.37;4.62;;;;;;;20.10;66.81;97878.09;1735779;82;20972;-63
2021/06/11 07:16:20;;;;;;;10.28;4.97;;;;;;;20.27;65.87;97885.09;1735841;82;21476;-64
2021/06/11 07:18:48;;;;;;;6.65;5.10;;;;;;;20.38;65.52;97884.17;1735516;82;21125;-65
2021/06/11 07:21:15;;;;;;;6.47;5.12;;;;;;;20.52;65.53;97880.16;1736137;82;21058;-62
2021/06/11 07:23:42;;;;;;;6.42;3.87;;;;;;;20.61;64.63;97886.20;1737203;81;20988;-64
2021/06/11 07:26:09;;;;;;;6.72;3.80;;;;;;;20.68;64.15;97881.67;1756735;81;21566;-65
2021/06/11 07:28:39;;;;;;;5.05;4.47;;;;;;;20.76;62.98;97878.52;1764631;81;21095;-65
2021/06/11 07:31:06;;;;;;;7.00;4.58;;;;;;;20.75;62.48;97878.33;1764692;81;21121;-65
2021/06/11 07:33:33;;;;;;;5.65;4.22;;;;;;;20.74;63.06;97879.46;1764638;81;21092;-66
2021/06/11 07:36:02;;;;;;;4.53;3.92;;;;;;;20.78;63.44;97883.03;1764108;81;21494;-63
2021/06/11 07:38:30;;;;;;;5.12;4.25;;;;;;;20.86;62.84;97877.95;1764875;81;21601;-65
2021/06/11 07:40:57;;;;;;;5.50;3.55;;;;;;;20.93;61.78;97873.44;1765747;81;20980;-64
2021/06/11 07:43:24;;;;;;;5.20;3.80;;;;;;;20.95;61.83;97885.32;1758210;81;21269;-64
2021/06/11 07:45:51;;;;;;;4.35;3.60;;;;;;;20.95;61.37;97881.23;1735722;82;20908;-67
2021/06/11 07:48:18;;;;;;;6.50;3.75;;;;;;;20.98;61.52;97883.25;1735727;82;21008;-65
2021/06/11 07:50:45;;;;;;;5.58;3.50;;;;;;;21.07;61.13;97879.75;1735798;82;21040;-68
2021/06/11 07:53:12;;;;;;;4.92;3.70;;;;;;;21.13;60.83;97874.20;1746007;81;20984;-65
2021/06/11 07:55:41;;;;;;;6.25;3.08;;;;;;;21.20;61.06;97881.14;1765113;81;22225;-66
2021/06/11 07:58:08;;;;;;;5.45;3.40;;;;;;;21.32;60.89;97876.89;1765966;81;20968;-65
2021/06/11 08:00:37;;;;;;;5.20;3.37;;;;;;;21.47;60.48;97871.91;1766073;81;21487;-64
2021/06/11 08:03:05;;;;;;;6.53;3.40;;;;;;;21.62;59.64;97875.06;1766079;81;20928;-67
2021/06/11 08:05:31;;;;;;;6.70;3.30;;;;;;;21.70;59.71;97871.31;1745737;81;21522;-65
2021/06/11 08:07:59;;;;;;;6.42;3.30;;;;;;;21.81;59.06;97874.98;1735817;82;21151;-66
2021/06/11 08:10:27;;;;;;;4.28;3.12;;;;;;;21.86;57.58;97882.69;1735683;82;21102;-64
2021/06/11 08:12:54;;;;;;;3.35;3.05;;;;;;;21.86;57.02;97881.33;1739875;81;20957;-67
2021/06/11 08:15:22;;;;;;;3.95;3.15;;;;;;;21.92;57.06;97875.76;1722039;81;20948;-64
2021/06/11 08:17:50;;;;;;;7.70;3.45;;;;;;;22.01;56.77;97876.28;1757699;81;21015;-67
2021/06/11 08:20:17;;;;;;;6.72;3.58;;;;;;;22.15;56.71;97879.21;1765403;81;21108;-65
2021/06/11 08:22:43;;;;;;;6.05;3.00;;;;;;;22.30;56.44;97881.76;1765716;81;20885;-66
2021/06/11 08:25:11;;;;;;;5.75;2.90;;;;;;;22.44;56.11;97878.45;1766293;81;20834;-67
2021/06/11 08:27:38;;;;;;;4.10;2.58;;;;;;;22.52;55.20;97880.10;1765851;81;21008;-63
2021/06/11 08:30:08;;;;;;;4.50;2.80;;;;;;;22.57;54.34;97873.53;1745877;81;20952;-63
2021/06/11 08:32:37;;;;;;;4.25;2.72;;;;;;;22.60;54.53;97871.44;1707275;82;22010;-63
2021/06/11 08:35:06;;;;;;;4.62;2.50;;;;;;;22.68;53.64;97872.53;1737657;81;21071;-65
2021/06/11 08:37:34;;;;;;;3.20;2.37;;;;;;;22.76;53.10;97872.84;1723652;81;20998;-64
2021/06/11 08:40:02;;;;;;;3.00;2.60;;;;;;;22.86;53.11;97865.36;1763120;79;20956;-62
2021/06/11 08:42:31;;;;;;;5.08;2.02;;;;;;;22.99;52.21;97862.56;1765414;81;21023;-64
2021/06/11 08:45:02;;;;;;;4.03;2.08;;;;;;;23.07;49.85;97856.59;1759015;81;21134;-64
2021/06/11 08:47:35;;;;;;;2.40;1.90;;;;;;;23.03;48.74;97856.55;1745642;80;20894;-64
2021/06/11 08:50:03;;;;;;;2.35;1.80;;;;;;;23.01;49.45;97858.87;1747428;80;20921;-64
2021/06/11 08:52:30;;;;;;;2.42;1.80;;;;;;;23.03;48.56;97844.86;1757854;81;20911;-64
2021/06/11 08:54:58;;;;;;;3.02;1.90;;;;;;;23.09;48.81;97852.33;1760836;81;20984;-61
2021/06/11 08:57:25;;;;;;;3.90;1.82;;;;;;;23.18;49.01;97847.12;1760369;81;21168;-62
2021/06/11 08:59:56;;;;;;;3.20;1.90;;;;;;;23.29;49.12;97842.56;1760364;81;20897;-61
2021/06/11 09:02:24;;;;;;;3.25;1.87;;;;;;;23.45;48.88;97841.77;1760490;81;21058;-61
2021/06/11 09:04:57;;;;;;;2.45;2.08;;;;;;;23.59;48.52;97836.41;1758973;81;21111;-62
2021/06/11 09:07:28;;;;;;;2.80;2.00;;;;;;;23.72;48.61;97830.25;1759954;81;20988;-62
2021/06/11 09:10:03;;;;;;;4.58;2.25;;;;;;;23.85;48.08;97828.01;1760426;81;21132;-62
2021/06/11 09:12:37;;;;;;;3.22;2.35;;;;;;;23.85;47.98;97834.84;1760794;81;20881;-61
2021/06/11 09:15:13;;;;;;;4.92;2.15;;;;;;;23.77;47.73;97829.11;1760657;81;20913;-62
2021/06/11 09:17:48;;;;;;;3.70;2.00;;;;;;;23.75;47.73;97827.34;1760523;81;20925;-63
2021/06/11 09:20:20;;;;;;;2.67;2.00;;;;;;;23.80;47.43;97829.73;1760592;81;21019;-62
2021/06/11 09:22:55;;;;;;;2.12;1.90;;;;;;;23.81;46.93;97827.21;1759950;81;21515;-65
2021/06/11 09:25:34;;;;;;;;;;;;;;;23.80;48.21;97825.62;1761775;81;21088;-64
2021/06/11 09:28:08;;;;;;;5.03;2.40;;;;;;;23.92;47.57;97825.32;1758249;81;20137;-61
2021/06/11 09:30:44;;;;;;;4.00;2.10;;;;;;;24.05;46.53;97822.45;1758021;81;21662;-64
2021/06/11 09:33:16;;;;;;;3.92;1.98;;;;;;;24.15;46.49;97824.51;1758120;81;21071;-61
2021/06/11 09:35:55;;;;;;;3.33;1.90;;;;;;;24.25;46.02;97811.47;1758386;81;21775;-62
2021/06/11 09:38:26;;;;;;;3.15;2.10;;;;;;;24.31;45.77;97811.87;1733282;80;21115;-63
2021/06/11 09:41:04;;;;;;;4.00;1.80;;;;;;;24.37;45.65;97805.67;1749960;81;21112;-63
2021/06/11 09:43:32;;;;;;;2.92;1.87;;;;;;;24.48;44.93;97803.75;1736425;81;20990;-63
2021/06/11 09:46:05;;;;;;;2.37;1.90;;;;;;;24.51;44.79;97800.03;1808820;79;21001;-62
2021/06/11 09:48:46;;;;;;;2.00;1.77;;;;;;;24.54;45.85;97800.64;1808946;78;21404;-64
2021/06/11 09:51:22;;;;;;;3.15;2.00;;;;;;;24.57;44.18;97794.38;1780471;77;21015;-62
2021/06/11 09:53:50;;;;;;;2.87;1.72;;;;;;;24.59;45.67;97796.16;1777107;80;20996;-60
2021/06/11 09:56:27;;;;;;;2.33;1.87;;;;;;;24.70;45.37;97784.64;1775846;79;21490;-65
2021/06/11 09:58:56;;;;;;;3.08;2.37;;;;;;;24.83;44.58;97777.66;1775889;80;21114;-63
2021/06/11 10:01:24;;;;;;;2.25;1.85;;;;;;;24.80;43.21;97777.84;1776352;79;21728;-63
2021/06/11 10:03:53;;;;;;;3.95;2.10;;;;;;;24.56;43.87;97772.28;1777302;79;20869;-61
2021/06/11 10:06:23;;;;;;;3.20;1.98;;;;;;;24.36;44.96;97775.34;1776915;80;20924;-63
2021/06/11 10:08:51;;;;;;;4.40;2.00;;;;;;;24.18;45.34;97774.50;1779202;79;20999;-61
2021/06/11 10:11:24;;;;;;;4.17;1.90;;;;;;;23.93;45.74;97774.14;1790961;79;20971;-59
2021/06/11 10:13:50;;;;;;;3.42;1.85;;;;;;;23.83;46.11;97781.13;1783914;79;21086;-61
2021/06/11 10:16:20;;;;;;;3.90;2.20;;;;;;;23.93;45.96;97779.61;1783797;79;21507;-61
2021/06/11 10:18:48;;;;;;;2.50;2.05;;;;;;;24.10;45.10;97777.56;1793594;79;20920;-62
2021/06/11 10:21:14;;;;;;;3.85;1.90;;;;;;;24.16;46.03;97776.84;1815714;78;21043;-66
2021/06/11 10:23:41;;;;;;;2.33;1.80;;;;;;;24.24;45.80;97779.00;1815736;78;20862;-67
2021/06/11 10:26:10;;;;;;;2.25;1.67;;;;;;;24.33;44.58;97780.82;1815030;78;21538;-70
2021/06/11 10:28:45;;;;;;;2.27;1.85;;;;;;;24.44;43.43;97776.95;1815170;78;21043;-65
2021/06/11 10:31:14;;;;;;;4.50;2.05;;;;;;;24.55;43.90;97770.13;1777119;80;21372;-65
2021/06/11 10:33:51;;;;;;;4.22;2.00;;;;;;;24.56;43.36;97768.18;1777306;80;20919;-63
2021/06/11 10:36:34;;;;;;;3.85;1.85;;;;;;;24.50;43.50;97771.87;1777209;80;20975;-63
2021/06/11 10:39:14;;;;;;;2.80;1.90;;;;;;;24.52;43.50;97764.66;1777200;80;21525;-66
2021/06/11 10:42:05;;;;;;;2.95;1.77;;;;;;;24.66;43.60;97761.95;1777127;80;20860;-62
2021/06/11 10:44:52;;;;;;;3.45;2.10;;;;;;;24.73;43.40;97760.61;1777356;80;20872;-64
2021/06/11 10:47:23;;;;;;;3.40;2.00;;;;;;;24.76;41.55;97759.26;1777394;80;21458;-64
2021/06/11 10:50:01;;;;;;;3.35;2.12;;;;;;;24.59;42.13;97755.09;1777172;80;20929;-61
2021/06/11 10:52:39;;;;;;;5.08;2.20;;;;;;;24.43;42.77;97763.05;1776661;80;21109;-61
2021/06/11 10:55:21;;;;;;;6.05;2.00;;;;;;;24.29;43.13;97790.37;1777479;80;20893;-63
2021/06/11 10:57:57;;;;;;;2.60;1.65;;;;;;;24.05;43.59;97807.41;1777111;80;21007;-68
2021/06/11 11:00:33;;;;;;;4.60;1.82;;;;;;;23.54;44.37;97797.91;1777381;80;20891;-62
2021/06/11 11:03:02;;;;;;;4.70;1.90;;;;;;;23.09;45.76;97796.33;1777140;80;20987;-63
2021/06/11 11:05:35;;;;;;;5.33;2.00;;;;;;;22.67;46.89;97802.73;1777354;80;21093;-63
2021/06/11 11:08:07;;;;;;;2.42;1.57;;;;;;;22.33;48.40;97810.66;1776666;79;20884;-64
2021/06/11 11:10:48;;;;;;;3.12;1.90;;;;;;;22.08;48.67;97805.48;1777567;80;20919;-69
2021/06/11 11:13:18;;;;;;;3.62;1.80;;;;;;;21.77;49.71;97801.91;1777263;80;20888;-64
2021/06/11 11:15:48;;;;;;;4.15;1.90;;;;;;;21.50;50.34;97799.55;1777427;80;21010;-65
2021/06/11 11:18:24;;;;;;;2.90;1.52;;;;;;;21.37;51.02;97801.67;1777101;80;21091;-65
2021/06/11 11:20:52;;;;;;;2.12;1.90;;;;;;;21.29;52.16;97802.70;1777252;80;20896;-64
2021/06/11 11:23:20;;;;;;;3.67;2.00;;;;;;;21.28;51.64;97798.42;1777128;80;21435;-62
2021/06/11 11:25:47;;;;;;;3.67;2.00;;;;;;;21.30;51.69;97788.51;1777715;80;21438;-62
2021/06/11 11:28:14;;;;;;;3.35;2.05;;;;;;;21.41;52.02;97785.40;1777164;80;20868;-65
2021/06/11 11:30:43;;;;;;;2.52;1.85;;;;;;;21.76;52.24;97782.61;1777384;80;21370;-64
2021/06/11 11:33:10;;;;;;;2.87;2.20;;;;;;;22.26;51.45;97777.84;1777111;80;20868;-63
2021/06/11 11:35:40;;;;;;;2.50;1.98;;;;;;;22.67;50.24;97785.56;1777465;80;20916;-63
2021/06/11 11:38:09;;;;;;;4.03;1.85;;;;;;;22.99;49.47;97779.26;1777167;80;21048;-62
2021/06/11 11:40:37;;;;;;;4.15;2.33;;;;;;;23.11;49.94;97781.72;1777178;80;20979;-62
2021/06/11 11:43:04;;;;;;;2.72;2.10;;;;;;;23.27;48.55;97772.48;1775813;80;21095;-62
2021/06/11 11:45:32;;;;;;;2.30;2.05;;;;;;;23.46;47.75;97775.02;1840995;77;20825;-60
2021/06/11 11:48:02;;;;;;;3.10;2.00;;;;;;;23.63;46.90;97781.17;1819930;78;21031;-62
2021/06/11 11:50:30;;;;;;;4.75;2.22;;;;;;;23.79;45.99;97767.98;1827579;78;20943;-62
2021/06/11 11:52:57;;;;;;;2.83;2.20;;;;;;;24.01;45.60;97771.05;1827500;78;20947;-62
2021/06/11 11:55:24;;;;;;;4.28;2.27;;;;;;;24.21;45.15;97766.11;1827639;78;21069;-69
2021/06/11 11:57:51;;;;;;;3.27;2.00;;;;;;;24.36;44.82;97760.30;1827551;78;21041;-64
2021/06/11 12:00:19;;;;;;;5.65;2.33;;;;;;;24.59;45.16;97753.73;1827395;78;20951;-62
2021/06/11 12:02:45;;;;;;;4.05;2.30;;;;;;;24.94;45.51;97748.34;1827814;78;21498;-64
2021/06/11 12:05:13;;;;;;;3.92;2.00;;;;;;;25.32;44.37;97750.29;1827340;78;20864;-63
2021/06/11 12:07:40;;;;;;;4.00;2.50;;;;;;;25.47;44.19;97760.70;1827396;78;21067;-63
2021/06/11 12:10:08;;;;;;;3.72;2.20;;;;;;;25.53;42.41;97739.33;1827352;78;21522;-63
2021/06/11 12:12:35;;;;;;;3.22;2.20;;;;;;;25.54;42.98;97746.39;1827789;78;21548;-63
2021/06/11 12:15:04;;;;;;;3.55;2.27;;;;;;;25.62;42.57;97742.48;1827516;78;20885;-62
2021/06/11 12:17:30;;;;;;;4.87;2.22;;;;;;;25.51;42.51;97737.58;1827449;78;21465;-68
2021/06/11 12:19:57;;;;;;;5.20;2.17;;;;;;;25.17;42.96;97732.30;1832214;77;21035;-70
2021/06/11 12:22:24;;;;;;;3.30;1.92;;;;;;;24.80;44.02;97727.78;1833666;77;20937;-66
2021/06/11 12:24:51;;;;;;;2.37;1.98;;;;;;;24.45;45.01;97732.55;1827281;78;20849;-66
2021/06/11 12:27:20;;;;;;;3.45;2.00;;;;;;;24.16;45.13;97733.64;1827871;77;21453;-61
2021/06/11 12:29:47;;;;;;;3.17;2.20;;;;;;;23.83;46.07;97722.33;1838694;77;20987;-64
2021/06/11 12:32:15;;;;;;;3.90;2.02;;;;;;;23.60;46.78;97730.01;1812306;77;21111;-61
2021/06/11 12:34:43;;;;;;;3.02;2.15;;;;;;;23.51;46.89;97722.70;1803744;78;20874;-62
2021/06/11 12:37:11;;;;;;;5.78;2.30;;;;;;;23.61;47.16;97727.46;1820123;77;20905;-62
2021/06/11 12:39:38;;;;;;;3.95;2.27;;;;;;;23.84;47.13;97727.98;1825672;78;21568;-65
2021/06/11 12:42:13;;;;;;;3.70;2.40;;;;;;;23.88;46.37;97721.17;1830565;77;21107;-66
2021/06/11 12:44:37;;;;;;;3.42;2.20;;;;;;;23.74;46.77;97715.05;1826611;78;21813;-64
2021/06/11 12:47:04;;;;;;;2.85;1.95;;;;;;;23.70;46.73;97721.86;1827849;77;20852;-65
2021/06/11 12:49:31;;;;;;;2.98;2.22;;;;;;;23.78;46.57;97717.22;1839719;77;20857;-66
2021/06/11 12:51:58;;;;;;;3.12;2.33;;;;;;;23.83;46.71;97720.17;1831065;78;20932;-67
2021/06/11 12:54:25;;;;;;;4.47;2.00;;;;;;;23.94;45.75;97732.72;1839133;78;20944;-63
2021/06/11 12:56:52;;;;;;;6.80;2.10;;;;;;;24.10;45.91;97733.79;1829208;77;21093;-68
2021/06/11 12:59:18;;;;;;;3.87;2.10;;;;;;;24.20;45.31;97739.90;1820763;77;21522;-70
2021/06/11 13:01:46;;;;;;;3.92;2.17;;;;;;;24.24;45.37;97736.00;1820381;78;21042;-65
2021/06/11 13:04:13;;;;;;;3.20;2.25;;;;;;;24.14;45.41;97729.14;1820651;77;21031;-62
2021/06/11 13:06:41;;;;;;;5.75;2.27;;;;;;;23.98;46.35;97726.68;1820263;78;21090;-66
2021/06/11 13:09:08;;;;;;;3.60;1.80;;;;;;;23.85;47.04;97731.50;1820668;77;21828;-63
2021/06/11 13:11:39;;;;;;;2.75;2.00;;;;;;;23.80;47.81;97723.88;1821710;77;20932;-65
2021/06/11 13:14:05;;;;;;;6.17;2.08;;;;;;;23.88;47.28;97727.44;1821844;77;20912;-63
2021/06/11 13:16:32;;;;;;;3.50;2.17;;;;;;;24.05;47.13;97725.34;1822179;77;21371;-63
2021/06/11 13:18:59;;;;;;;2.92;2.10;;;;;;;24.14;46.22;97731.27;1819537;78;20900;-64
2021/06/11 13:21:30;;;;;;;4.83;1.98;;;;;;;24.07;46.21;97737.31;1814717;78;21609;-62
2021/06/11 13:23:55;;;;;;;3.12;1.95;;;;;;;23.92;46.89;97735.06;1821613;78;20959;-65
2021/06/11 13:26:21;;;;;;;4.55;2.00;;;;;;;23.85;47.50;97748.70;1822160;78;20871;-65
2021/06/11 13:28:48;;;;;;;4.97;2.20;;;;;;;23.93;47.49;97744.82;1822128;77;20916;-65
2021/06/11 13:31:15;;;;;;;3.12;1.95;;;;;;;24.27;46.50;97746.19;1821899;78;21006;-62
2021/06/11 13:33:42;;;;;;;4.97;2.02;;;;;;;24.55;45.63;97736.48;1822207;77;21089;-66
2021/06/11 13:36:10;;;;;;;2.77;1.98;;;;;;;24.97;45.20;97739.32;1821743;77;20963;-64
2021/06/11 13:38:37;;;;;;;2.17;1.92;;;;;;;25.44;42.69;97738.95;1821876;77;20976;-71
2021/06/11 13:41:04;;;;;;;3.20;1.92;;;;;;;25.74;41.15;97739.30;1821737;78;20856;-65
2021/06/11 13:43:31;;;;;;;5.17;2.10;;;;;;;26.32;40.44;97736.59;1821778;78;20975;-63
2021/06/11 13:45:58;;;;;;;3.92;2.08;;;;;;;26.32;40.44;97736.59;1821858;78;21767;-62
2021/06/11 13:48:24;;;;;;;6.12;1.87;;;;;;;26.52;40.39;97728.03;1823282;78;20861;-63
2021/06/11 13:50:51;;;;;;;3.62;1.75;;;;;;;26.73;40.20;97732.06;1827362;78;20940;-63
2021/06/11 13:53:18;;;;;;;3.58;1.80;;;;;;;27.01;39.23;97738.76;1827232;78;20966;-64
2021/06/11 13:55:46;;;;;;;2.40;1.10;;;;;;;27.14;39.47;97749.45;1827267;78;21006;-63
2021/06/11 13:58:12;;;;;;;1.35;1.00;;;;;;;27.31;37.50;97766.98;1827334;78;20981;-63
2021/06/11 14:00:39;;;;;;;1.72;0.98;;;;;;;27.16;35.34;97763.39;1827308;78;20916;-67
2021/06/11 14:03:07;;;;;;;2.45;0.93;;;;;;;26.65;36.26;97767.61;1827629;78;20951;-67
2021/06/11 14:05:39;;;;;;;2.10;1.00;;;;;;;26.13;35.85;97771.36;1836217;78;20848;-64
2021/06/11 14:08:04;;;;;;;7.40;1.17;;;;;;;25.58;36.88;97782.02;1827264;78;20873;-64
2021/06/11 14:10:31;;;;;;;6.40;2.22;;;;;;;25.04;38.48;97799.02;1827537;78;21059;-61
2021/06/11 14:12:57;;;;;;;5.10;1.95;;;;;;;24.47;40.32;97817.83;1827745;78;20958;-65
2021/06/11 14:15:24;;;;;;;4.70;1.80;;;;;;;23.68;47.20;97827.30;1827522;78;20868;-67
2021/06/11 14:17:53;;;;;;;3.92;2.05;;;;;;;22.59;51.95;97853.50;1827784;78;20888;-64
2021/06/11 14:20:19;;;;;;;3.17;1.90;;;;;;;21.20;59.38;97883.86;1827443;78;20908;-64
2021/06/11 14:22:47;;;;;;;3.65;1.77;;;;;;;19.70;62.64;97889.20;1827515;78;21100;-63
2021/06/11 14:25:16;;;;;;;9.53;1.85;;;;;;;18.62;66.00;97893.29;1827542;78;21013;-63
